Time;durP1;ratioP1;P1;durP2;ratioP2;P2;SDS_P1;SDS_P2;PMS_P1;PMS_P2;Temp;Humidity;BMP_temperature;BMP_pressure;BME280_temperature;BME280_humidity;BME280_pressure;Samples;Min_cycle;Max_cycle;Signal;HPM_P1;HPM_P2
2021/08/01 00:00:53;;;;;;;6.30;4.35;;;;;;;;;;4938900;29;20047;-81
2021/08/01 00:03:21;;;;;;;6.75;4.00;;;;;;;;;;4942929;29;20512;-82
2021/08/01 00:05:48;;;;;;;6.65;3.65;;;;;;;;;;4942444;29;20056;-81
2021/08/01 00:08:15;;;;;;;6.70;3.90;;;;;;;;;;4943197;29;20084;-80
2021/08/01 00:10:41;;;;;;;7.22;4.10;;;;;;;;;;4943357;29;20099;-81
2021/08/01 00:13:08;;;;;;;5.93;4.07;;;;;;;;;;4942369;29;20047;-81
2021/08/01 00:15:35;;;;;;;7.57;3.90;;;;;;;;;;4944478;29;20055;-81
2021/08/01 00:18:02;;;;;;;5.55;4.13;;;;;;;;;;4944656;29;20055;-80
2021/08/01 00:20:30;;;;;;;6.05;4.10;;;;;;;;;;4944541;29;20150;-81
2021/08/01 00:22:57;;;;;;;7.35;4.70;;;;;;;;;;4944737;29;20141;-81
2021/08/01 00:25:24;;;;;;;6.93;4.50;;;;;;;;;;4944514;29;20055;-81
2021/08/01 00:27:52;;;;;;;7.60;4.05;;;;;;;;;;4944878;29;20102;-82
2021/08/01 00:30:19;;;;;;;5.47;3.72;;;;;;;;;;4945608;29;20565;-81
2021/08/01 00:32:46;;;;;;;9.13;4.35;;;;;;;;;;4949003;29;20465;-81
2021/08/01 00:35:13;;;;;;;8.15;3.97;;;;;;;;;;4947997;29;20043;-82
2021/08/01 00:37:41;;;;;;;6.25;4.05;;;;;;;;;;4948961;29;20052;-81
2021/08/01 00:40:09;;;;;;;6.30;4.63;;;;;;;;;;4949080;29;20048;-81
2021/08/01 00:42:35;;;;;;;8.05;3.92;;;;;;;;;;4948469;29;20052;-81
2021/08/01 00:45:03;;;;;;;6.22;3.70;;;;;;;;;;4948001;29;20047;-81
2021/08/01 00:47:29;;;;;;;6.63;4.10;;;;;;;;;;4947978;29;20055;-82
2021/08/01 00:49:57;;;;;;;9.70;4.68;;;;;;;;;;4950506;29;20035;-82
2021/08/01 00:52:24;;;;;;;8.00;4.20;;;;;;;;;;4951783;29;20056;-82
2021/08/01 00:54:52;;;;;;;9.98;5.00;;;;;;;;;;4949480;29;20081;-81
2021/08/01 00:57:19;;;;;;;6.15;4.20;;;;;;;;;;4948962;29;20043;-81
2021/08/01 00:59:46;;;;;;;7.88;4.40;;;;;;;;;;4948657;29;20047;-83
2021/08/01 01:02:17;;;;;;;7.60;4.35;;;;;;;;;;4947009;29;20103;-81
2021/08/01 01:04:54;;;;;;;8.65;4.78;;;;;;;;;;4945415;29;20048;-82
2021/08/01 01:07:25;;;;;;;7.32;5.00;;;;;;;;;;4945083;29;20164;-81
2021/08/01 01:09:55;;;;;;;;;;;;;;;;;;4945952;29;20048;-81
2021/08/01 01:12:27;;;;;;;7.10;4.18;;;;;;;;;;4945478;29;19974;-82
2021/08/01 01:14:56;;;;;;;6.60;4.55;;;;;;;;;;4943377;29;20063;-81
2021/08/01 01:17:28;;;;;;;7.38;4.93;;;;;;;;;;4942130;29;20115;-80
2021/08/01 01:20:35;;;;;;;7.65;4.80;;;;;;;;;;4941609;29;20052;-80
2021/08/01 01:23:15;;;;;;;6.90;4.82;;;;;;;;;;4936491;29;20052;-82
2021/08/01 01:25:50;;;;;;;7.20;4.95;;;;;;;;;;4941013;29;20138;-80
2021/08/01 01:28:23;;;;;;;7.88;4.72;;;;;;;;;;4942436;29;20055;-81
2021/08/01 01:30:59;;;;;;;7.28;4.60;;;;;;;;;;4941614;29;20048;-82
2021/08/01 01:33:32;;;;;;;8.13;4.65;;;;;;;;;;4941731;29;20084;-82
2021/08/01 01:36:02;;;;;;;6.72;4.75;;;;;;;;;;4940377;29;20048;-82
2021/08/01 01:38:31;;;;;;;8.18;4.68;;;;;;;;;;4942373;29;20047;-81
2021/08/01 01:40:58;;;;;;;6.28;4.65;;;;;;;;;;4941731;29;20048;-81
2021/08/01 01:43:26;;;;;;;6.57;4.50;;;;;;;;;;4941134;29;20106;-81
2021/08/01 01:45:55;;;;;;;6.75;3.95;;;;;;;;;;4941255;29;20197;-81
2021/08/01 01:48:22;;;;;;;6.75;4.78;;;;;;;;;;4941530;29;20051;-81
2021/08/01 01:50:50;;;;;;;7.40;5.13;;;;;;;;;;4957016;23;20054;-76
2021/08/01 01:53:17;;;;;;;7.32;4.65;;;;;;;;;;4956354;29;20440;-76
2021/08/01 01:55:47;;;;;;;8.27;4.55;;;;;;;;;;4955795;28;20464;-75
2021/08/01 01:58:14;;;;;;;7.15;5.07;;;;;;;;;;4956233;29;20051;-76
2021/08/01 02:00:41;;;;;;;10.40;5.30;;;;;;;;;;4953861;29;20105;-76
2021/08/01 02:03:08;;;;;;;7.70;5.00;;;;;;;;;;4937248;29;20130;-76
2021/08/01 02:05:35;;;;;;;9.18;5.15;;;;;;;;;;4936959;29;20055;-76
2021/08/01 02:08:02;;;;;;;6.93;4.85;;;;;;;;;;4937094;29;20106;-76
2021/08/01 02:10:34;;;;;;;6.80;4.47;;;;;;;;;;4937098;29;20112;-76
2021/08/01 02:13:05;;;;;;;7.32;4.97;;;;;;;;;;4936760;29;20460;-75
2021/08/01 02:15:39;;;;;;;7.88;5.38;;;;;;;;;;4935990;29;20107;-75
2021/08/01 02:18:09;;;;;;;8.40;5.35;;;;;;;;;;4936689;29;20099;-76
2021/08/01 02:20:40;;;;;;;7.78;4.85;;;;;;;;;;4936617;29;20044;-76
2021/08/01 02:23:10;;;;;;;7.05;5.53;;;;;;;;;;4936602;29;20452;-76
2021/08/01 02:25:38;;;;;;;7.13;5.20;;;;;;;;;;4936278;29;20102;-75
2021/08/01 02:28:07;;;;;;;9.05;5.15;;;;;;;;;;4936529;29;20397;-76
2021/08/01 02:30:35;;;;;;;7.88;5.57;;;;;;;;;;4936738;29;20134;-76
2021/08/01 02:33:03;;;;;;;7.47;5.22;;;;;;;;;;4936645;29;20048;-76
2021/08/01 02:35:31;;;;;;;7.68;5.30;;;;;;;;;;4935965;29;20095;-77
2021/08/01 02:38:00;;;;;;;7.88;4.93;;;;;;;;;;4936665;29;20465;-77
2021/08/01 02:40:30;;;;;;;5.70;4.60;;;;;;;;;;4936116;29;20106;-76
2021/08/01 02:43:00;;;;;;;6.00;4.38;;;;;;;;;;4936375;29;20131;-75
2021/08/01 02:45:29;;;;;;;7.07;4.43;;;;;;;;;;4935572;29;20115;-77
2021/08/01 02:47:57;;;;;;;9.52;4.93;;;;;;;;;;4936386;29;20044;-77
2021/08/01 02:50:26;;;;;;;6.25;4.78;;;;;;;;;;4936253;29;20052;-76
2021/08/01 02:52:58;;;;;;;6.68;4.93;;;;;;;;;;4936192;29;20047;-77
2021/08/01 02:55:27;;;;;;;8.65;5.00;;;;;;;;;;4935548;29;20118;-76
2021/08/01 02:57:54;;;;;;;6.45;5.13;;;;;;;;;;4936075;29;20497;-76
2021/08/01 03:00:22;;;;;;;8.32;4.68;;;;;;;;;;4936328;29;20055;-77
2021/08/01 03:02:51;;;;;;;8.40;5.80;;;;;;;;;;4935967;29;20126;-76
2021/08/01 03:05:19;;;;;;;7.80;5.17;;;;;;;;;;4935322;29;20056;-76
2021/08/01 03:07:47;;;;;;;7.60;5.22;;;;;;;;;;4935796;29;20052;-77
2021/08/01 03:10:14;;;;;;;5.95;4.50;;;;;;;;;;4936052;29;20048;-76
2021/08/01 03:12:42;;;;;;;7.70;5.15;;;;;;;;;;4935891;29;20102;-76
2021/08/01 03:15:10;;;;;;;8.13;6.05;;;;;;;;;;4935008;29;20497;-76
2021/08/01 03:17:37;;;;;;;8.73;5.00;;;;;;;;;;4936292;29;20107;-77
2021/08/01 03:20:06;;;;;;;7.75;5.80;;;;;;;;;;4936276;29;20043;-77
2021/08/01 03:22:33;;;;;;;8.93;5.32;;;;;;;;;;4935956;29;20471;-74
2021/08/01 03:25:00;;;;;;;8.73;5.97;;;;;;;;;;4935017;29;20051;-76
2021/08/01 03:27:27;;;;;;;9.15;6.13;;;;;;;;;;4935801;29;20421;-76
2021/08/01 03:29:54;;;;;;;9.25;5.75;;;;;;;;;;4935419;29;20051;-76
2021/08/01 03:32:23;;;;;;;7.85;7.05;;;;;;;;;;4935453;29;20079;-76
2021/08/01 03:34:50;;;;;;;7.93;5.82;;;;;;;;;;4934790;29;20048;-76
2021/08/01 03:37:18;;;;;;;9.15;6.28;;;;;;;;;;4935611;29;20107;-76
2021/08/01 03:39:45;;;;;;;13.52;6.13;;;;;;;;;;4936007;29;20135;-75
2021/08/01 03:42:12;;;;;;;11.02;5.95;;;;;;;;;;4935189;29;20055;-76
2021/08/01 03:44:39;;;;;;;9.07;5.43;;;;;;;;;;4934732;29;20051;-77
2021/08/01 03:47:05;;;;;;;9.00;5.28;;;;;;;;;;4935416;29;20051;-76
2021/08/01 03:49:32;;;;;;;4.50;2.83;;;;;;;;;;4935219;29;20047;-77
2021/08/01 03:51:59;;;;;;;6.65;2.95;;;;;;;;;;4935714;29;20060;-77
2021/08/01 03:54:27;;;;;;;5.00;2.15;;;;;;;;;;4937954;29;20099;-77
2021/08/01 03:56:54;;;;;;;4.05;2.42;;;;;;;;;;4936760;29;20117;-77
2021/08/01 03:59:21;;;;;;;4.97;2.38;;;;;;;;;;4938256;29;20485;-78
2021/08/01 04:01:47;;;;;;;4.15;2.50;;;;;;;;;;4937872;29;20051;-77
2021/08/01 04:04:14;;;;;;;4.20;2.80;;;;;;;;;;4937582;29;20048;-76
2021/08/01 04:06:41;;;;;;;5.85;2.70;;;;;;;;;;4935257;29;20055;-77
2021/08/01 04:09:08;;;;;;;6.55;3.42;;;;;;;;;;4936251;29;20485;-77
2021/08/01 04:11:37;;;;;;;4.78;3.20;;;;;;;;;;4938713;29;20493;-77
2021/08/01 04:14:04;;;;;;;6.57;3.93;;;;;;;;;;4936567;29;20047;-76
2021/08/01 04:16:31;;;;;;;5.13;3.20;;;;;;;;;;4935051;29;20803;-76
2021/08/01 04:18:58;;;;;;;4.68;3.35;;;;;;;;;;4935473;29;20107;-76
2021/08/01 04:21:25;;;;;;;5.28;3.28;;;;;;;;;;4935607;29;20569;-76
2021/08/01 04:23:51;;;;;;;5.38;3.55;;;;;;;;;;4935403;29;20493;-77
2021/08/01 04:26:18;;;;;;;4.72;3.30;;;;;;;;;;4934155;29;20107;-77
2021/08/01 04:28:46;;;;;;;7.38;3.33;;;;;;;;;;4934579;29;20055;-77
2021/08/01 04:31:15;;;;;;;4.95;2.90;;;;;;;;;;4934589;29;20131;-76
2021/08/01 04:33:42;;;;;;;5.93;3.40;;;;;;;;;;4934930;29;20051;-78
2021/08/01 04:36:08;;;;;;;5.25;3.08;;;;;;;;;;4934113;29;20060;-76
2021/08/01 04:38:35;;;;;;;4.60;2.60;;;;;;;;;;4934782;29;20189;-76
2021/08/01 04:41:02;;;;;;;3.63;2.47;;;;;;;;;;4934890;29;20048;-76
2021/08/01 04:43:29;;;;;;;4.75;2.75;;;;;;;;;;4934587;29;20123;-76
2021/08/01 04:45:57;;;;;;;4.97;2.90;;;;;;;;;;4934254;29;20044;-76
2021/08/01 04:48:24;;;;;;;4.80;2.95;;;;;;;;;;4934545;29;20497;-77
2021/08/01 04:50:51;;;;;;;4.45;2.85;;;;;;;;;;4934823;29;20095;-76
2021/08/01 04:53:17;;;;;;;5.38;3.15;;;;;;;;;;4934431;29;20577;-77
2021/08/01 04:55:44;;;;;;;3.80;2.80;;;;;;;;;;4934002;29;20181;-77
2021/08/01 04:58:11;;;;;;;4.43;2.80;;;;;;;;;;4934245;29;20056;-76
2021/08/01 05:00:38;;;;;;;5.28;2.50;;;;;;;;;;4934420;29;20119;-76
2021/08/01 05:03:06;;;;;;;4.47;2.30;;;;;;;;;;4934827;29;20103;-77
2021/08/01 05:05:36;;;;;;;4.47;2.05;;;;;;;;;;4933973;29;20556;-76
2021/08/01 05:08:03;;;;;;;2.97;1.85;;;;;;;;;;4934955;29;20055;-76
2021/08/01 05:10:30;;;;;;;8.85;2.60;;;;;;;;;;4934187;29;20485;-76
2021/08/01 05:12:57;;;;;;;5.55;3.28;;;;;;;;;;4934493;29;20055;-76
2021/08/01 05:15:23;;;;;;;5.03;2.38;;;;;;;;;;4933825;29;20486;-77
2021/08/01 05:17:50;;;;;;;4.40;2.20;;;;;;;;;;4936328;29;20107;-76
2021/08/01 05:20:19;;;;;;;3.63;2.05;;;;;;;;;;4938013;29;20099;-77
2021/08/01 05:22:46;;;;;;;4.47;2.15;;;;;;;;;;4937799;29;20043;-77
2021/08/01 05:25:12;;;;;;;4.57;2.03;;;;;;;;;;4937322;29;20047;-77
2021/08/01 05:27:39;;;;;;;3.80;2.15;;;;;;;;;;4937885;29;20051;-77
2021/08/01 05:30:07;;;;;;;4.32;2.30;;;;;;;;;;4937583;29;20564;-77
2021/08/01 05:32:34;;;;;;;4.25;2.20;;;;;;;;;;4937802;29;20048;-76
2021/08/01 05:35:00;;;;;;;4.68;2.03;;;;;;;;;;4937855;29;20309;-77
2021/08/01 05:37:29;;;;;;;3.95;1.90;;;;;;;;;;4937914;29;20044;-77
2021/08/01 05:39:55;;;;;;;3.53;2.10;;;;;;;;;;4937439;29;20124;-77
2021/08/01 05:42:22;;;;;;;4.40;2.30;;;;;;;;;;4937749;29;20091;-76
2021/08/01 05:44:49;;;;;;;4.82;2.65;;;;;;;;;;4936676;29;20047;-76
2021/08/01 05:47:15;;;;;;;5.43;2.72;;;;;;;;;;4937438;29;20099;-77
2021/08/01 05:49:42;;;;;;;5.85;2.50;;;;;;;;;;4937183;29;20052;-76
2021/08/01 05:52:09;;;;;;;4.72;2.42;;;;;;;;;;4937394;29;20055;-76
2021/08/01 05:54:37;;;;;;;5.25;2.55;;;;;;;;;;4937025;29;20052;-76
2021/08/01 05:57:04;;;;;;;4.47;2.63;;;;;;;;;;4937254;29;20493;-76
2021/08/01 05:59:32;;;;;;;4.18;2.55;;;;;;;;;;4937306;29;20059;-76
2021/08/01 06:01:59;;;;;;;4.70;2.53;;;;;;;;;;4937134;29;20108;-76
2021/08/01 06:04:26;;;;;;;5.70;2.40;;;;;;;;;;4936902;29;20047;-76
2021/08/01 06:06:53;;;;;;;5.65;3.58;;;;;;;;;;4936375;29;20044;-76
2021/08/01 06:09:19;;;;;;;4.93;2.60;;;;;;;;;;4937334;29;20134;-77
2021/08/01 06:11:48;;;;;;;4.03;2.42;;;;;;;;;;4936997;29;20051;-77
2021/08/01 06:14:14;;;;;;;4.15;2.67;;;;;;;;;;4936751;29;20108;-76
2021/08/01 06:16:41;;;;;;;4.68;2.92;;;;;;;;;;4936018;29;20059;-76
2021/08/01 06:19:08;;;;;;;5.05;2.85;;;;;;;;;;4936937;29;20103;-77
2021/08/01 06:21:35;;;;;;;4.05;2.60;;;;;;;;;;4936514;29;20048;-76
2021/08/01 06:24:01;;;;;;;4.50;2.65;;;;;;;;;;4937019;29;20063;-76
2021/08/01 06:26:28;;;;;;;4.25;2.40;;;;;;;;;;4935921;29;20654;-76
2021/08/01 06:28:56;;;;;;;3.28;2.30;;;;;;;;;;4935709;29;20043;-76
2021/08/01 06:31:23;;;;;;;3.53;2.40;;;;;;;;;;4936698;29;20493;-76
2021/08/01 06:33:50;;;;;;;4.60;2.47;;;;;;;;;;4936739;29;20047;-76
2021/08/01 06:36:17;;;;;;;5.10;2.95;;;;;;;;;;4936000;29;20119;-76
2021/08/01 06:38:45;;;;;;;4.30;2.47;;;;;;;;;;4936329;29;20493;-76
2021/08/01 06:41:13;;;;;;;4.15;2.72;;;;;;;;;;4936274;29;20099;-76
2021/08/01 06:43:39;;;;;;;3.80;2.33;;;;;;;;;;4936225;29;20454;-76
2021/08/01 06:46:08;;;;;;;4.60;2.80;;;;;;;;;;4935440;29;20048;-77
2021/08/01 06:48:34;;;;;;;4.35;2.80;;;;;;;;;;4936179;29;20051;-77
2021/08/01 06:51:02;;;;;;;6.38;3.38;;;;;;;;;;4936261;29;20047;-77
2021/08/01 06:53:29;;;;;;;6.75;3.50;;;;;;;;;;4936300;29;20086;-77
2021/08/01 06:55:56;;;;;;;4.93;3.00;;;;;;;;;;4935398;29;20052;-76
2021/08/01 06:58:23;;;;;;;4.65;3.08;;;;;;;;;;4936109;29;20051;-76
2021/08/01 07:00:51;;;;;;;6.13;3.40;;;;;;;;;;4935874;29;20406;-76
2021/08/01 07:03:20;;;;;;;5.68;3.60;;;;;;;;;;4936135;29;20208;-77
2021/08/01 07:05:47;;;;;;;5.78;2.90;;;;;;;;;;4935289;29;20103;-77
2021/08/01 07:08:14;;;;;;;5.40;2.75;;;;;;;;;;4936251;29;20142;-77
2021/08/01 07:10:40;;;;;;;4.85;2.67;;;;;;;;;;4935868;29;20055;-77
2021/08/01 07:13:08;;;;;;;6.68;3.00;;;;;;;;;;4936654;29;20047;-77
2021/08/01 07:15:37;;;;;;;5.63;2.90;;;;;;;;;;4935048;29;20402;-76
2021/08/01 07:18:04;;;;;;;5.28;2.97;;;;;;;;;;4935912;29;20051;-76
2021/08/01 07:20:34;;;;;;;5.28;2.88;;;;;;;;;;4935623;29;20055;-77
2021/08/01 07:23:00;;;;;;;4.47;2.67;;;;;;;;;;4936032;29;20047;-76
2021/08/01 07:25:27;;;;;;;5.25;2.80;;;;;;;;;;4935324;29;20055;-76
2021/08/01 07:27:54;;;;;;;5.20;2.90;;;;;;;;;;4936113;29;20048;-77
2021/08/01 07:30:22;;;;;;;4.40;3.03;;;;;;;;;;4935531;29;20052;-77
2021/08/01 07:32:48;;;;;;;5.63;3.10;;;;;;;;;;4935514;29;20104;-76
2021/08/01 07:35:15;;;;;;;5.63;3.00;;;;;;;;;;4935164;29;20106;-77
2021/08/01 07:37:43;;;;;;;4.57;2.83;;;;;;;;;;4935421;29;20123;-77
2021/08/01 07:40:11;;;;;;;5.53;3.03;;;;;;;;;;4935521;29;20103;-77
2021/08/01 07:42:37;;;;;;;6.45;3.25;;;;;;;;;;4935042;29;20462;-77
2021/08/01 07:45:09;;;;;;;6.32;3.40;;;;;;;;;;4934787;29;20462;-77
2021/08/01 07:47:36;;;;;;;5.57;3.10;;;;;;;;;;4935072;29;20083;-77
2021/08/01 07:50:03;;;;;;;5.70;3.03;;;;;;;;;;4935475;29;20556;-76
2021/08/01 07:52:31;;;;;;;5.05;3.45;;;;;;;;;;4966342;23;20091;-80
2021/08/01 07:55:00;;;;;;;4.90;2.85;;;;;;;;;;4966361;29;20043;-81
2021/08/01 07:57:28;;;;;;;6.70;2.90;;;;;;;;;;4964871;28;20062;-81
2021/08/01 07:59:56;;;;;;;4.93;2.80;;;;;;;;;;4964123;29;20047;-81
2021/08/01 08:02:24;;;;;;;4.80;3.10;;;;;;;;;;4964230;28;20062;-81
2021/08/01 08:04:51;;;;;;;4.57;3.05;;;;;;;;;;4964824;28;20079;-80
2021/08/01 08:07:18;;;;;;;6.47;3.80;;;;;;;;;;4966174;28;20114;-80
2021/08/01 08:09:44;;;;;;;6.82;3.05;;;;;;;;;;4965617;28;20115;-81
2021/08/01 08:12:14;;;;;;;5.47;3.15;;;;;;;;;;4967298;28;20043;-81
2021/08/01 08:14:40;;;;;;;5.70;3.28;;;;;;;;;;4968819;28;20061;-79
2021/08/01 08:17:08;;;;;;;5.35;3.10;;;;;;;;;;4968726;29;20079;-79
2021/08/01 08:19:35;;;;;;;7.85;4.10;;;;;;;;;;4963566;28;20106;-80
2021/08/01 08:22:02;;;;;;;6.95;4.43;;;;;;;;;;4960599;28;20144;-78
2021/08/01 08:24:32;;;;;;;7.50;4.70;;;;;;;;;;4963133;28;20051;-80
2021/08/01 08:26:58;;;;;;;6.05;4.40;;;;;;;;;;4963275;28;20106;-80
2021/08/01 08:29:26;;;;;;;8.30;3.75;;;;;;;;;;4962941;28;20055;-80
2021/08/01 08:31:54;;;;;;;6.20;3.40;;;;;;;;;;4963685;28;20058;-80
2021/08/01 08:34:23;;;;;;;6.50;4.20;;;;;;;;;;4963752;28;20051;-80
2021/08/01 08:36:51;;;;;;;6.22;3.80;;;;;;;;;;4963142;28;20047;-81
2021/08/01 08:39:20;;;;;;;5.80;3.50;;;;;;;;;;4961345;28;20043;-82
2021/08/01 08:41:48;;;;;;;5.90;3.83;;;;;;;;;;4960230;28;20058;-80
2021/08/01 08:44:15;;;;;;;6.13;3.53;;;;;;;;;;4966913;28;20055;-82
2021/08/01 08:46:43;;;;;;;5.53;3.80;;;;;;;;;;4977091;28;20067;-78
2021/08/01 08:49:11;;;;;;;8.10;3.50;;;;;;;;;;4979293;28;20063;-78
2021/08/01 08:51:40;;;;;;;5.53;3.65;;;;;;;;;;4979684;28;20039;-83
2021/08/01 08:54:11;;;;;;;5.82;3.13;;;;;;;;;;4982205;28;20126;-81
2021/08/01 08:56:39;;;;;;;6.45;4.03;;;;;;;;;;4970726;28;20051;-80
2021/08/01 08:59:07;;;;;;;6.25;3.45;;;;;;;;;;4963970;28;20097;-83
2021/08/01 09:01:34;;;;;;;6.85;3.65;;;;;;;;;;4962106;28;20043;-79
2021/08/01 09:04:02;;;;;;;7.85;3.10;;;;;;;;;;4962997;28;20051;-79
2021/08/01 09:06:30;;;;;;;6.30;3.60;;;;;;;;;;4961784;28;20051;-79
2021/08/01 09:08:57;;;;;;;5.43;3.20;;;;;;;;;;4960439;28;20059;-79
2021/08/01 09:11:25;;;;;;;12.52;9.55;;;;;;;;;;4961651;28;20043;-78
2021/08/01 09:13:52;;;;;;;9.65;6.55;;;;;;;;;;4962681;28;20055;-79
2021/08/01 09:16:20;;;;;;;6.22;3.70;;;;;;;;;;4962938;28;20106;-80
2021/08/01 09:18:48;;;;;;;5.35;3.30;;;;;;;;;;4963891;28;20047;-78
2021/08/01 09:21:33;;;;;;;5.25;3.15;;;;;;;;;;4961884;28;20052;-80
2021/08/01 09:24:00;;;;;;;6.50;3.53;;;;;;;;;;4961551;28;20055;-79
2021/08/01 09:26:42;;;;;;;4.80;3.25;;;;;;;;;;4964057;28;20055;-81
2021/08/01 09:29:08;;;;;;;5.50;3.10;;;;;;;;;;4967932;28;20035;-81
2021/08/01 09:31:35;;;;;;;5.13;3.20;;;;;;;;;;4962666;28;20122;-81
2021/08/01 09:34:20;;;;;;;4.75;3.22;;;;;;;;;;4962133;28;20054;-83
2021/08/01 09:37:04;;;;;;;5.25;3.50;;;;;;;;;;4962534;28;20127;-80
2021/08/01 09:39:39;;;;;;;5.07;3.38;;;;;;;;;;4963586;28;20047;-82
2021/08/01 09:42:09;;;;;;;6.20;3.92;;;;;;;;;;4962827;28;20114;-83
2021/08/01 09:44:37;;;;;;;14.00;11.38;;;;;;;;;;4963775;28;20051;-78
2021/08/01 09:47:04;;;;;;;7.43;4.22;;;;;;;;;;4961664;28;20111;-82
2021/08/01 09:49:31;;;;;;;6.20;3.40;;;;;;;;;;4961881;28;20051;-79
2021/08/01 09:52:02;;;;;;;4.72;3.20;;;;;;;;;;4961934;28;20078;-79
2021/08/01 09:54:47;;;;;;;6.63;3.63;;;;;;;;;;4961932;28;20055;-80
2021/08/01 09:57:18;;;;;;;6.72;3.40;;;;;;;;;;4960953;28;20051;-80
2021/08/01 09:59:48;;;;;;;5.43;3.80;;;;;;;;;;4964560;28;20051;-82
2021/08/01 10:02:15;;;;;;;6.95;3.67;;;;;;;;;;4965657;28;20078;-81
2021/08/01 10:04:42;;;;;;;4.93;2.95;;;;;;;;;;4967949;28;20051;-79
2021/08/01 10:07:12;;;;;;;5.05;3.45;;;;;;;;;;4965667;28;20456;-79
2021/08/01 10:09:41;;;;;;;5.15;3.47;;;;;;;;;;4959647;28;20575;-80
2021/08/01 10:12:09;;;;;;;7.10;4.22;;;;;;;;;;4958743;28;20098;-80
2021/08/01 10:14:36;;;;;;;6.20;3.70;;;;;;;;;;4958864;29;20055;-82
2021/08/01 10:17:05;;;;;;;5.38;3.80;;;;;;;;;;4964573;29;20556;-80
2021/08/01 10:19:32;;;;;;;7.72;4.30;;;;;;;;;;4963005;29;20058;-79
2021/08/01 10:22:01;;;;;;;5.40;3.38;;;;;;;;;;4961745;28;20106;-80
2021/08/01 10:24:32;;;;;;;5.20;3.20;;;;;;;;;;4963538;29;20405;-78
2021/08/01 10:27:04;;;;;;;5.22;3.00;;;;;;;;;;4959324;28;20220;-79
2021/08/01 10:29:37;;;;;;;4.72;3.30;;;;;;;;;;4958620;28;20055;-79
2021/08/01 10:32:09;;;;;;;5.22;3.30;;;;;;;;;;4957996;28;20051;-78
2021/08/01 10:34:46;;;;;;;6.55;3.97;;;;;;;;;;4956668;29;20071;-81
2021/08/01 10:37:22;;;;;;;5.68;3.30;;;;;;;;;;4964395;28;20139;-77
2021/08/01 10:39:50;;;;;;;6.20;3.92;;;;;;;;;;4957616;29;20055;-80
2021/08/01 10:42:20;;;;;;;5.15;3.35;;;;;;;;;;4963443;28;20156;-80
2021/08/01 10:44:48;;;;;;;5.47;3.27;;;;;;;;;;4960373;29;20078;-79
2021/08/01 10:47:16;;;;;;;5.78;3.47;;;;;;;;;;4959084;28;20047;-79
2021/08/01 10:49:46;;;;;;;5.80;3.25;;;;;;;;;;4956675;29;20046;-79
2021/08/01 10:52:16;;;;;;;5.75;3.70;;;;;;;;;;4956386;28;20130;-79
2021/08/01 10:55:03;;;;;;;5.20;3.70;;;;;;;;;;4961935;28;20453;-79
2021/08/01 10:57:30;;;;;;;5.07;3.45;;;;;;;;;;4962135;29;20104;-79
2021/08/01 11:00:04;;;;;;;5.15;3.63;;;;;;;;;;4956728;29;20074;-80
2021/08/01 11:02:31;;;;;;;5.90;3.35;;;;;;;;;;4955913;28;20515;-79
2021/08/01 11:04:58;;;;;;;7.15;3.92;;;;;;;;;;4956640;29;20142;-79
2021/08/01 11:07:58;;;;;;;5.97;3.85;;;;;;;;;;4958373;28;20102;-79
2021/08/01 11:10:30;;;;;;;5.15;3.67;;;;;;;;;;4957729;29;20118;-79
2021/08/01 11:12:58;;;;;;;6.45;3.80;;;;;;;;;;4958928;28;20058;-79
2021/08/01 11:15:44;;;;;;;8.25;3.95;;;;;;;;;;4958412;28;20110;-79
2021/08/01 11:18:13;;;;;;;6.53;3.63;;;;;;;;;;4962358;28;20118;-79
2021/08/01 11:20:53;;;;;;;5.70;3.67;;;;;;;;;;4964676;28;20050;-79
2021/08/01 11:23:20;;;;;;;5.80;3.60;;;;;;;;;;4962613;28;20500;-79
2021/08/01 11:26:09;;;;;;;6.65;3.53;;;;;;;;;;4959310;28;20059;-78
2021/08/01 11:28:36;;;;;;;4.82;2.88;;;;;;;;;;4959397;28;20453;-79
2021/08/01 11:31:18;;;;;;;5.68;3.17;;;;;;;;;;4959816;28;20047;-81
2021/08/01 11:33:47;;;;;;;5.78;3.58;;;;;;;;;;4957039;28;20054;-78
2021/08/01 11:36:25;;;;;;;5.93;3.75;;;;;;;;;;4955981;28;20047;-79
2021/08/01 11:39:06;;;;;;;6.80;3.75;;;;;;;;;;4959242;28;20047;-79
2021/08/01 11:41:55;;;;;;;7.68;3.95;;;;;;;;;;4957410;28;20098;-78
2021/08/01 11:44:24;;;;;;;5.88;2.97;;;;;;;;;;4955073;28;20051;-80
2021/08/01 11:47:04;;;;;;;6.70;3.55;;;;;;;;;;4958593;28;20086;-79
2021/08/01 11:49:33;;;;;;;6.60;3.37;;;;;;;;;;4958135;28;20081;-79
2021/08/01 11:52:01;;;;;;;5.63;2.85;;;;;;;;;;4957968;28;20289;-79
2021/08/01 11:54:30;;;;;;;5.90;3.00;;;;;;;;;;4957948;28;20055;-79
2021/08/01 11:57:01;;;;;;;4.43;2.70;;;;;;;;;;4958380;29;20047;-79
2021/08/01 11:59:28;;;;;;;5.18;2.72;;;;;;;;;;4959234;28;20058;-79
2021/08/01 12:01:56;;;;;;;6.55;3.28;;;;;;;;;;4958718;28;20050;-79
2021/08/01 12:04:26;;;;;;;5.82;3.33;;;;;;;;;;4959936;28;20058;-80
2021/08/01 12:06:54;;;;;;;4.88;3.40;;;;;;;;;;4958614;28;20051;-80
2021/08/01 12:09:26;;;;;;;5.22;3.50;;;;;;;;;;4958207;28;20184;-78
2021/08/01 12:11:55;;;;;;;5.50;3.05;;;;;;;;;;4956251;28;20047;-80
2021/08/01 12:14:27;;;;;;;5.82;3.30;;;;;;;;;;4958082;28;20047;-80
2021/08/01 12:16:57;;;;;;;5.07;3.60;;;;;;;;;;4963098;28;20079;-81
2021/08/01 12:19:25;;;;;;;4.25;2.83;;;;;;;;;;4962675;28;20051;-79
2021/08/01 12:21:55;;;;;;;4.57;2.75;;;;;;;;;;4963368;28;20058;-79
2021/08/01 12:24:34;;;;;;;5.93;4.10;;;;;;;;;;4961611;28;20055;-79
2021/08/01 12:27:06;;;;;;;7.95;4.40;;;;;;;;;;4957711;28;20067;-79
2021/08/01 12:29:37;;;;;;;4.93;3.38;;;;;;;;;;4958919;28;20050;-79
2021/08/01 12:32:21;;;;;;;7.03;3.67;;;;;;;;;;4959133;28;20051;-80
2021/08/01 12:34:48;;;;;;;5.43;3.05;;;;;;;;;;4959700;28;20055;-80
2021/08/01 12:37:16;;;;;;;5.35;3.47;;;;;;;;;;4959575;29;20140;-79
2021/08/01 12:39:51;;;;;;;6.07;3.20;;;;;;;;;;4959278;28;20106;-79
2021/08/01 12:42:19;;;;;;;6.53;3.60;;;;;;;;;;4959324;28;20047;-79
2021/08/01 12:44:58;;;;;;;6.38;4.43;;;;;;;;;;4958593;28;20047;-80
2021/08/01 12:47:27;;;;;;;6.18;3.53;;;;;;;;;;4960014;28;20043;-79
2021/08/01 12:49:55;;;;;;;5.13;3.58;;;;;;;;;;4960067;28;20051;-79
2021/08/01 12:52:24;;;;;;;5.85;3.65;;;;;;;;;;4958735;28;20058;-79
2021/08/01 12:54:53;;;;;;;6.00;3.63;;;;;;;;;;4957861;28;20047;-80
2021/08/01 12:57:21;;;;;;;6.60;4.38;;;;;;;;;;4958981;28;20110;-78
2021/08/01 13:00:12;;;;;;;6.28;4.57;;;;;;;;;;4959076;28;20450;-80
2021/08/01 13:02:41;;;;;;;6.30;4.43;;;;;;;;;;4958738;28;20106;-79
2021/08/01 13:05:19;;;;;;;4.88;3.28;;;;;;;;;;4958342;28;20070;-79
2021/08/01 13:07:49;;;;;;;4.80;2.95;;;;;;;;;;4961204;28;20086;-80
2021/08/01 13:10:17;;;;;;;4.53;3.17;;;;;;;;;;4961599;28;20059;-80
2021/08/01 13:13:12;;;;;;;5.07;3.38;;;;;;;;;;4961158;28;20052;-79
2021/08/01 13:15:42;;;;;;;6.70;3.92;;;;;;;;;;4959565;28;20058;-79
2021/08/01 13:18:21;;;;;;;5.38;3.70;;;;;;;;;;4964379;29;20414;-78
2021/08/01 13:20:48;;;;;;;6.25;3.65;;;;;;;;;;4961206;28;20043;-79
2021/08/01 13:23:38;;;;;;;6.82;3.40;;;;;;;;;;4959326;28;20394;-78
2021/08/01 13:26:28;;;;;;;6.60;3.45;;;;;;;;;;4959962;28;20058;-79
2021/08/01 13:29:04;;;;;;;5.97;3.47;;;;;;;;;;4964471;28;20475;-80
2021/08/01 13:31:43;;;;;;;5.43;3.28;;;;;;;;;;4960847;28;20051;-79
2021/08/01 13:34:13;;;;;;;5.57;3.60;;;;;;;;;;4962317;28;20142;-80
2021/08/01 13:36:48;;;;;;;7.35;3.65;;;;;;;;;;4960653;29;20055;-80
2021/08/01 13:39:17;;;;;;;5.47;3.65;;;;;;;;;;4959570;28;20058;-79
2021/08/01 13:41:57;;;;;;;6.40;4.22;;;;;;;;;;4959781;28;20051;-80
2021/08/01 13:44:25;;;;;;;6.20;4.10;;;;;;;;;;4960629;28;20110;-80
2021/08/01 13:47:16;;;;;;;6.38;4.10;;;;;;;;;;4958842;29;20046;-79
2021/08/01 13:49:46;;;;;;;7.03;4.30;;;;;;;;;;4958445;28;20070;-80
2021/08/01 13:52:14;;;;;;;6.73;4.73;;;;;;;;;;4977450;23;20047;-78
2021/08/01 13:54:44;;;;;;;7.05;5.00;;;;;;;;;;4954287;29;20050;-78
2021/08/01 13:57:12;;;;;;;8.63;5.67;;;;;;;;;;4956840;29;20043;-78
2021/08/01 13:59:40;;;;;;;6.78;4.32;;;;;;;;;;4956577;29;20315;-78
2021/08/01 14:02:07;;;;;;;9.23;4.07;;;;;;;;;;4956489;29;20062;-78
2021/08/01 14:04:38;;;;;;;6.45;4.60;;;;;;;;;;4955051;28;20125;-78
2021/08/01 14:07:05;;;;;;;6.20;4.03;;;;;;;;;;4954447;28;20054;-78
2021/08/01 14:09:34;;;;;;;7.32;4.78;;;;;;;;;;4957032;28;20482;-78
2021/08/01 14:12:02;;;;;;;5.78;3.95;;;;;;;;;;4957378;28;20512;-78
2021/08/01 14:14:29;;;;;;;10.55;8.27;;;;;;;;;;4956345;28;20051;-77
2021/08/01 14:16:56;;;;;;;7.38;4.32;;;;;;;;;;4956985;28;20051;-78
2021/08/01 14:19:25;;;;;;;5.70;3.80;;;;;;;;;;4956590;28;20074;-78
2021/08/01 14:21:53;;;;;;;7.10;4.43;;;;;;;;;;4954884;28;20043;-77
2021/08/01 14:24:20;;;;;;;6.03;4.15;;;;;;;;;;4954045;28;20047;-79
2021/08/01 14:26:49;;;;;;;7.28;4.25;;;;;;;;;;4955389;28;20444;-78
2021/08/01 14:29:19;;;;;;;6.18;4.40;;;;;;;;;;4956172;28;20130;-78
2021/08/01 14:31:47;;;;;;;6.20;4.03;;;;;;;;;;4956208;28;20043;-78
2021/08/01 14:34:15;;;;;;;6.28;4.60;;;;;;;;;;4955870;28;20089;-78
2021/08/01 14:36:42;;;;;;;7.32;4.57;;;;;;;;;;4960861;28;20039;-77
2021/08/01 14:39:14;;;;;;;5.53;3.88;;;;;;;;;;4964028;28;20051;-78
2021/08/01 14:41:42;;;;;;;7.70;6.28;;;;;;;;;;4954136;28;20138;-78
2021/08/01 14:44:10;;;;;;;6.80;4.40;;;;;;;;;;4953356;28;20058;-78
2021/08/01 14:46:39;;;;;;;6.07;4.25;;;;;;;;;;4953510;28;20094;-78
2021/08/01 14:49:09;;;;;;;6.20;4.30;;;;;;;;;;4954711;28;20051;-77
2021/08/01 14:54:26;;;;;;;6.10;4.00;;;;;;;;;;4952132;29;20058;-78
2021/08/01 14:57:09;;;;;;;4.90;2.97;;;;;;;;;;4953441;28;20106;-78
2021/08/01 14:59:40;;;;;;;5.90;3.60;;;;;;;;;;4954864;28;20102;-77